Terminal Aerodrome Forecast
Issued by NWS Chicago, IL

Home | Current Version | Previous Version | Graphics & Text | Print | Product List | Glossary On
Versions: 1 2 3 4 5 6 7 8 9 10 11 12 13 14 15 16 17 18 19 20 21 22 23 24 25 26 27 28 29
000
FTUS43 KLOT 240310 AAA
TAFRFD
TAF AMD
KRFD 240310Z 2403/2424 07008KT P6SM SCT020
     FM240600 08006KT 4SM BR SCT015
     FM240800 08006KT 3SM BR BKN009
     FM241600 09009KT P6SM BKN015 BKN040
     FM242100 11009KT P6SM BKN035 BKN050=

USA.gov is the U.S. government's official web portal to all federal, state and local government web resources and services.